Time,TemperatureF,DewpointF,PressureIn,WindDirection,WindDirectionDegrees,WindSpeedMPH,WindSpeedGustMPH,Humidity,HourlyPrecipIn,Conditions,Clouds,dailyrainin,SoftwareType,DateUTC
2013-05-16 00:01:00,66.8,62.0,29.69,South,180,0.0,0.0,84,14.53,,---,0.00,VWS V12.08,2013-05-16 04:01:00,
2013-05-16 00:06:00,66.6,61.9,29.69,South,180,3.4,14.7,85,14.53,,---,0.00,VWS V12.08,2013-05-16 04:06:00,
2013-05-16 00:11:00,66.8,62.3,29.69,SW,222,0.0,14.7,86,14.53,,---,0.00,VWS V12.08,2013-05-16 04:11:00,
2013-05-16 00:16:00,32.5,32.5,29.58,WNW,300,9.3,17.1,100,0.00,,---,0.00,VWS V12.08,2013-05-16 04:16:00,
2013-05-16 00:21:00,29.1,27.7,30.03,WNW,291,0.0,30.0,94,0.88,,---,0.00,VWS V12.08,2013-05-16 04:21:00,
2013-05-16 00:26:00,32.3,30.8,30.23,NNE,13,4.3,6.3,94,0.06,,---,0.06,VWS V12.08,2013-05-16 04:26:00,
2013-05-16 00:31:00,37.7,35.5,29.32,West,280,6.8,13.3,92,1.03,,---,1.03,VWS V12.08,2013-05-16 04:31:00,
2013-05-16 00:36:00,37.8,33.1,30.39,NW,304,4.4,8.1,83,0.00,,---,0.00,VWS V12.08,2013-05-16 04:36:00,
2013-05-16 00:41:00,67.0,62.0,29.69,WSW,240,0.0,14.7,84,14.53,,---,0.00,VWS V12.08,2013-05-16 04:41:00,
2013-05-16 00:46:00,42.3,42.3,29.99,NNW,346,0.0,0.0,100,0.27,,---,0.27,VWS V12.08,2013-05-16 04:46:00,
2013-05-16 00:51:00,33.7,32.0,30.29,NE,38,0.0,0.0,93,0.00,,---,0.00,VWS V12.08,2013-05-16 04:51:00,
2013-05-16 00:56:00,54.0,54.0,29.58,WNW,285,19.9,23.6,100,0.03,,---,0.03,VWS V12.08,2013-05-16 04:56:00,
2013-05-16 01:01:00,42.3,42.3,29.99,NNW,346,0.0,0.0,100,0.27,,---,0.27,VWS V12.08,2013-05-16 05:01:00,
2013-05-16 01:06:00,65.6,61.1,29.69,SW,214,0.0,0.0,85,14.53,,---,0.00,VWS V12.08,2013-05-16 05:06:00,
2013-05-16 01:11:00,50.3,50.3,30.08,South,186,0.0,8.8,100,0.03,,---,0.03,VWS V12.08,2013-05-16 05:11:00,
2013-05-16 01:16:00,38.9,31.6,30.29,WSW,252,5.8,18.4,75,0.04,,---,0.00,VWS V12.08,2013-05-16 05:16:00,
2013-05-16 01:21:00,36.6,36.6,30.19,North,4,0.0,12.4,100,0.55,,---,0.55,VWS V12.08,2013-05-16 05:21:00,
2013-05-16 01:26:00,36.3,24.0,29.83,WNW,283,10.6,26.2,60,0.00,,---,0.00,VWS V12.08,2013-05-16 05:26:00,
2013-05-16 01:31:00,41.2,41.2,30.10,South,173,0.0,11.1,100,0.00,,---,0.00,VWS V12.08,2013-05-16 05:31:00,
2013-05-16 01:36:00,39.6,38.9,30.20,NW,315,0.0,0.0,97,0.00,,---,0.00,VWS V12.08,2013-05-16 05:36:00,
2013-05-16 01:41:00,40.2,35.9,30.60,North,353,5.0,16.1,84,0.00,,---,0.00,VWS V12.08,2013-05-16 05:41:00,
2013-05-16 01:46:00,38.8,32.6,30.28,North,4,0.0,14.5,78,0.00,,---,0.00,VWS V12.08,2013-05-16 05:46:00,
2013-05-16 01:51:00,42.5,37.6,29.96,West,260,5.5,13.0,83,0.00,,---,0.00,VWS V12.08,2013-05-16 05:51:00,
2013-05-16 01:56:00,45.5,43.3,30.39,South,170,0.0,10.6,92,0.00,,---,0.00,VWS V12.08,2013-05-16 05:56:00,
2013-05-16 02:01:00,33.1,33.1,29.76,NW,308,5.1,14.2,100,0.22,,---,0.22,VWS V12.08,2013-05-16 06:01:00,
2013-05-16 02:06:00,42.5,37.6,29.96,West,260,5.5,13.0,83,0.00,,---,0.00,VWS V12.08,2013-05-16 06:06:00,
2013-05-16 02:11:00,62.9,60.3,29.69,West,262,0.0,0.0,91,14.53,,---,0.00,VWS V12.08,2013-05-16 06:11:00,
2013-05-16 02:16:00,44.5,38.0,29.74,WNW,298,11.1,15.2,78,0.00,,---,0.00,VWS V12.08,2013-05-16 06:16:00,
2013-05-16 02:21:00,45.2,38.5,29.73,WNW,283,10.8,19.6,77,0.00,,---,0.00,VWS V12.08,2013-05-16 06:21:00,
2013-05-16 02:26:00,62.6,60.3,29.69,West,262,0.0,14.7,92,14.53,,---,0.00,VWS V12.08,2013-05-16 06:26:00,
2013-05-16 02:31:00,46.6,38.0,29.71,West,276,17.2,18.0,72,0.00,,---,0.00,VWS V12.08,2013-05-16 06:31:00,
2013-05-16 02:36:00,62.6,60.4,29.69,West,262,0.0,14.7,93,14.53,,---,0.00,VWS V12.08,2013-05-16 06:36:00,
2013-05-16 02:41:00,62.7,60.6,29.69,West,262,0.0,14.7,93,14.53,,---,0.00,VWS V12.08,2013-05-16 06:41:00,
2013-05-16 02:46:00,62.5,60.4,29.69,WNW,302,0.0,14.7,93,14.53,,---,0.00,VWS V12.08,2013-05-16 06:46:00,
2013-05-16 02:51:00,62.5,60.5,29.69,WNW,302,0.0,14.7,93,14.53,,---,0.00,VWS V12.08,2013-05-16 06:51:00,
2013-05-16 02:56:00,62.4,60.4,29.69,WNW,302,0.0,14.7,93,14.53,,---,0.00,VWS V12.08,2013-05-16 06:56:00,
2013-05-16 03:01:00,62.2,60.2,29.69,WNW,302,0.0,14.7,93,14.53,,---,0.00,VWS V12.08,2013-05-16 07:01:00,
2013-05-16 03:06:00,62.1,60.2,29.68,WNW,302,0.0,14.7,93,14.53,,---,0.00,VWS V12.08,2013-05-16 07:06:00,
2013-05-16 03:11:00,62.0,60.1,29.69,WNW,302,0.0,14.7,94,14.53,,---,0.00,VWS V12.08,2013-05-16 07:11:00,
2013-05-16 03:16:00,61.9,60.1,29.69,WNW,302,0.0,14.7,94,14.53,,---,0.00,VWS V12.08,2013-05-16 07:16:00,
2013-05-16 03:21:00,62.0,60.2,29.69,WNW,302,0.0,14.7,94,14.53,,---,0.00,VWS V12.08,2013-05-16 07:21:00,
2013-05-16 03:26:00,61.9,60.2,29.69,WNW,302,0.0,14.7,94,14.53,,---,0.00,VWS V12.08,2013-05-16 07:26:00,
2013-05-16 03:31:00,61.8,60.1,29.69,WNW,302,0.0,14.7,94,14.53,,---,0.00,VWS V12.08,2013-05-16 07:31:00,
2013-05-16 03:36:00,61.5,59.8,29.69,WNW,302,0.0,14.7,94,14.53,,---,0.00,VWS V12.08,2013-05-16 07:36:00,
2013-05-16 03:41:00,61.5,59.9,29.69,WNW,302,0.0,14.7,94,14.53,,---,0.00,VWS V12.08,2013-05-16 07:41:00,
2013-05-16 03:46:00,61.6,60.0,29.69,WNW,302,0.0,14.7,94,14.53,,---,0.00,VWS V12.08,2013-05-16 07:46:00,
2013-05-16 03:51:00,61.2,59.6,29.69,WNW,302,0.0,14.7,95,14.53,,---,0.00,VWS V12.08,2013-05-16 07:51:00,
2013-05-16 03:56:00,61.3,59.8,29.69,WNW,302,0.0,14.7,95,14.53,,---,0.00,VWS V12.08,2013-05-16 07:56:00,
2013-05-16 04:01:00,61.3,59.8,29.69,WNW,302,0.0,14.7,95,14.53,,---,0.00,VWS V12.08,2013-05-16 08:01:00,
2013-05-16 04:06:00,61.0,59.6,29.69,WNW,302,0.0,14.7,95,14.53,,---,0.00,VWS V12.08,2013-05-16 08:06:00,
2013-05-16 04:11:00,61.0,59.6,29.69,WNW,302,0.0,14.7,95,14.53,,---,0.00,VWS V12.08,2013-05-16 08:11:00,
2013-05-16 04:16:00,60.7,59.3,29.69,WNW,302,0.0,14.7,95,14.53,,---,0.00,VWS V12.08,2013-05-16 08:16:00,
2013-05-16 04:21:00,60.8,59.5,29.69,WNW,302,0.0,14.7,95,14.53,,---,0.00,VWS V12.08,2013-05-16 08:21:00,
2013-05-16 04:26:00,60.4,59.1,29.69,WNW,290,0.0,14.7,96,14.53,,---,0.00,VWS V12.08,2013-05-16 08:26:00,
2013-05-16 04:31:00,60.4,59.2,29.69,WNW,300,4.7,14.7,96,14.53,,---,0.00,VWS V12.08,2013-05-16 08:31:00,
2013-05-16 04:36:00,60.5,59.3,29.69,WNW,302,3.5,0.0,96,14.53,,---,0.00,VWS V12.08,2013-05-16 08:36:00,
2013-05-16 04:41:00,60.1,58.8,29.69,WNW,284,4.7,14.7,96,14.53,,---,0.00,VWS V12.08,2013-05-16 08:41:00,
2013-05-16 04:46:00,60.3,58.9,29.69,WNW,294,6.1,14.7,95,14.53,,---,0.00,VWS V12.08,2013-05-16 08:46:00,
2013-05-16 04:51:00,60.3,58.8,29.69,WNW,297,2.2,14.7,95,14.53,,---,0.00,VWS V12.08,2013-05-16 08:51:00,
2013-05-16 04:56:00,60.5,58.8,29.70,WNW,302,6.5,14.7,94,14.53,,---,0.00,VWS V12.08,2013-05-16 08:56:00,
2013-05-16 05:01:00,60.4,58.6,29.70,NW,322,3.3,14.7,94,14.53,,---,0.00,VWS V12.08,2013-05-16 09:01:00,
2013-05-16 05:06:00,60.5,58.6,29.70,North,359,0.0,14.7,93,14.53,,---,0.00,VWS V12.08,2013-05-16 09:06:00,
2013-05-16 05:11:00,60.4,58.3,29.69,NW,308,2.9,14.7,93,14.53,,---,0.00,VWS V12.08,2013-05-16 09:11:00,
2013-05-16 05:16:00,60.4,58.2,29.69,NNW,330,4.3,14.7,92,14.53,,---,0.00,VWS V12.08,2013-05-16 09:16:00,
2013-05-16 05:20:00,60.5,58.1,29.70,WNW,298,5.3,14.7,92,14.53,,---,0.00,VWS V12.08,2013-05-16 09:20:00,
2013-05-16 05:25:00,60.4,57.7,29.70,NW,326,0.0,14.7,91,14.53,,---,0.00,VWS V12.08,2013-05-16 09:25:00,
2013-05-16 05:30:00,60.4,57.5,29.70,NNW,330,5.0,14.7,90,14.53,,---,0.00,VWS V12.08,2013-05-16 09:30:00,
2013-05-16 05:35:00,60.3,57.0,29.70,NW,319,3.4,14.7,89,14.53,,---,0.00,VWS V12.08,2013-05-16 09:35:00,
2013-05-16 05:40:00,60.4,56.8,29.71,WNW,284,0.0,14.7,88,14.53,,---,0.00,VWS V12.08,2013-05-16 09:40:00,
2013-05-16 05:45:00,60.4,56.5,29.71,NW,309,5.5,14.7,87,14.53,,---,0.00,VWS V12.08,2013-05-16 09:45:00,
2013-05-16 05:50:00,60.3,56.1,29.71,NNW,338,4.3,14.7,86,14.53,,---,0.00,VWS V12.08,2013-05-16 09:50:00,
2013-05-16 05:55:00,60.4,55.8,29.71,NW,309,5.6,14.7,85,14.53,,---,0.00,VWS V12.08,2013-05-16 09:55:00,
2013-05-16 06:00:00,60.4,55.3,29.71,NW,316,3.4,14.7,83,14.53,,---,0.00,VWS V12.08,2013-05-16 10:00:00,
2013-05-16 06:05:00,45.2,45.2,29.57,NNE,13,6.3,9.5,100,0.40,,---,0.39,VWS V12.08,2013-05-16 10:05:00,
2013-05-16 06:10:00,60.7,55.0,29.71,NW,322,0.0,14.7,82,14.53,,---,0.00,VWS V12.08,2013-05-16 10:10:00,
2013-05-16 06:15:00,49.9,49.9,30.08,SSW,207,6.3,11.3,100,0.03,,---,0.03,VWS V12.08,2013-05-16 10:15:00,
2013-05-16 06:20:00,61.0,55.1,29.72,NW,322,0.0,14.7,81,14.53,,---,0.00,VWS V12.08,2013-05-16 10:20:00,
2013-05-16 06:25:00,60.7,54.7,29.72,NW,322,0.0,14.7,80,14.53,,---,0.00,VWS V12.08,2013-05-16 10:25:00,
2013-05-16 06:30:00,61.2,55.1,29.73,NW,322,0.0,14.7,80,14.53,,---,0.00,VWS V12.08,2013-05-16 10:30:00,
2013-05-16 06:35:00,60.9,54.7,29.73,WNW,300,4.4,0.0,80,14.53,,---,0.00,VWS V12.08,2013-05-16 10:35:00,
2013-05-16 06:40:00,45.6,40.4,30.17,ENE,68,0.0,9.5,82,0.00,,---,0.00,VWS V12.08,2013-05-16 10:40:00,
2013-05-16 06:45:00,37.7,35.5,29.32,West,280,6.8,13.3,92,1.03,,---,1.03,VWS V12.08,2013-05-16 10:45:00,
2013-05-16 06:50:00,61.5,55.1,29.74,West,281,0.0,14.7,80,14.53,,---,0.00,VWS V12.08,2013-05-16 10:50:00,
2013-05-16 06:55:00,61.7,55.3,29.74,West,281,0.0,14.7,79,14.53,,---,0.00,VWS V12.08,2013-05-16 10:55:00,
2013-05-16 07:00:00,62.0,55.4,29.74,West,281,0.0,14.7,79,14.53,,---,0.00,VWS V12.08,2013-05-16 11:00:00,
2013-05-16 07:05:00,62.2,55.2,29.74,West,281,0.0,14.7,78,14.53,,---,0.00,VWS V12.08,2013-05-16 11:05:00,
2013-05-16 07:10:00,62.7,55.4,29.74,West,281,0.0,14.7,77,14.53,,---,0.00,VWS V12.08,2013-05-16 11:10:00,
2013-05-16 07:15:00,62.7,55.2,29.75,West,281,0.0,14.7,76,14.53,,---,0.00,VWS V12.08,2013-05-16 11:15:00,
2013-05-16 07:20:00,63.2,55.4,29.75,West,281,0.0,14.7,76,14.53,,---,0.00,VWS V12.08,2013-05-16 11:20:00,
2013-05-16 07:25:00,63.4,55.0,29.75,West,281,0.0,14.7,74,14.53,,---,0.00,VWS V12.08,2013-05-16 11:25:00,
2013-05-16 07:30:00,63.8,55.1,29.75,West,281,0.0,14.7,73,14.53,,---,0.00,VWS V12.08,2013-05-16 11:30:00,
2013-05-16 07:35:00,64.0,54.9,29.75,West,281,0.0,14.7,72,14.53,,---,0.00,VWS V12.08,2013-05-16 11:35:00,
2013-05-16 07:40:00,39.1,36.7,30.42,NNE,21,5.8,15.4,91,0.00,,---,0.00,VWS V12.08,2013-05-16 11:40:00,
2013-05-16 07:45:00,64.6,55.0,29.75,West,281,0.0,0.0,71,14.53,,---,0.00,VWS V12.08,2013-05-16 11:45:00,
2013-05-16 07:50:00,64.9,55.1,29.75,West,281,0.0,14.7,70,14.53,,---,0.00,VWS V12.08,2013-05-16 11:50:00,
2013-05-16 07:55:00,28.2,22.4,30.17,SW,225,3.5,7.8,78,0.03,,---,0.03,VWS V12.08,2013-05-16 11:55:00,
2013-05-16 08:00:00,30.5,26.2,29.83,NW,315,11.4,25.4,84,0.88,,---,0.84,VWS V12.08,2013-05-16 12:00:00,
2013-05-16 08:05:00,65.5,54.6,29.76,NW,315,0.0,0.0,68,14.53,,---,0.00,VWS V12.08,2013-05-16 12:05:00,
2013-05-16 08:10:00,65.6,54.7,29.76,NW,315,0.0,0.0,68,14.53,,---,0.00,VWS V12.08,2013-05-16 12:10:00,
2013-05-16 08:15:00,28.2,22.4,30.17,SW,225,3.5,7.8,78,0.03,,---,0.03,VWS V12.08,2013-05-16 12:15:00,
2013-05-16 08:20:00,66.0,54.8,29.76,NW,315,0.0,0.0,67,14.53,,---,0.00,VWS V12.08,2013-05-16 12:20:00,
2013-05-16 08:25:00,66.1,54.8,29.76,NW,315,0.0,14.7,67,14.53,,---,0.00,VWS V12.08,2013-05-16 12:25:00,
2013-05-16 08:30:00,35.0,35.0,29.90,NNW,332,0.0,12.4,100,0.10,,---,0.10,VWS V12.08,2013-05-16 12:30:00,
2013-05-16 08:35:00,30.5,26.2,29.83,NW,315,11.4,25.4,84,0.88,,---,0.84,VWS V12.08,2013-05-16 12:35:00,
2013-05-16 08:40:00,37.6,35.2,29.32,South,180,0.0,45.1,91,1.13,,---,1.03,VWS V12.08,2013-05-16 12:40:00,
2013-05-16 08:45:00,35.2,35.2,29.90,North,350,3.3,8.0,100,0.12,,---,0.12,VWS V12.08,2013-05-16 12:45:00,
2013-05-16 08:50:00,66.7,55.1,29.77,NW,315,0.0,14.7,66,14.53,,---,0.00,VWS V12.08,2013-05-16 12:50:00,
2013-05-16 08:55:00,66.9,55.1,29.77,NW,315,0.0,0.0,66,14.53,,---,0.00,VWS V12.08,2013-05-16 12:55:00,
2013-05-16 09:00:00,35.5,27.5,30.22,North,359,5.6,17.0,72,0.01,,---,0.01,VWS V12.08,2013-05-16 13:00:00,
2013-05-16 09:05:00,43.7,43.7,29.87,North,6,0.0,17.8,100,0.63,,---,0.63,VWS V12.08,2013-05-16 13:05:00,
2013-05-16 09:10:00,67.6,53.5,29.79,WNW,290,0.0,0.0,61,14.53,,---,0.00,VWS V12.08,2013-05-16 13:10:00,
2013-05-16 09:15:00,36.4,29.6,30.22,WNW,295,0.0,0.0,76,0.00,,---,0.00,VWS V12.08,2013-05-16 13:15:00,
2013-05-16 09:20:00,45.2,45.2,29.96,NNW,339,0.0,8.5,100,0.27,,---,0.27,VWS V12.08,2013-05-16 13:20:00,
2013-05-16 09:25:00,68.1,52.7,29.79,WSW,246,0.0,0.0,58,14.53,,---,0.00,VWS V12.08,2013-05-16 13:25:00,
2013-05-16 09:30:00,35.2,29.5,30.25,SSW,194,6.2,21.6,79,0.59,,---,0.03,VWS V12.08,2013-05-16 13:30:00,
2013-05-16 09:35:00,49.9,49.9,30.08,SSW,207,6.3,11.3,100,0.03,,---,0.03,VWS V12.08,2013-05-16 13:35:00,
2013-05-16 09:40:00,49.4,48.1,29.64,SW,214,1.6,8.3,95,0.00,,---,0.00,VWS V12.08,2013-05-16 13:40:00,
2013-05-16 09:45:00,42.1,33.3,30.20,NNW,343,3.4,5.8,71,0.00,,---,0.00,VWS V12.08,2013-05-16 13:45:00,
2013-05-16 09:50:00,37.0,28.2,29.93,SW,224,11.1,11.4,70,0.00,,---,0.00,VWS V12.08,2013-05-16 13:50:00,
2013-05-16 09:55:00,37.2,32.8,30.42,NNW,339,5.8,15.9,84,0.00,,---,0.00,VWS V12.08,2013-05-16 13:55:00,
2013-05-16 10:00:00,37.4,31.2,30.43,WNW,302,0.0,7.8,78,0.00,,---,0.00,VWS V12.08,2013-05-16 14:00:00,
2013-05-16 10:05:00,68.5,55.3,29.76,SSE,150,0.0,14.7,63,14.53,,---,0.00,VWS V12.08,2013-05-16 14:05:00,
2013-05-16 10:10:00,38.6,32.4,30.27,North,4,0.0,0.0,78,0.00,,---,0.00,VWS V12.08,2013-05-16 14:10:00,
2013-05-16 10:15:00,36.7,28.2,30.04,North,359,6.6,12.1,71,0.00,,---,0.00,VWS V12.08,2013-05-16 14:15:00,
2013-05-16 10:20:00,42.5,37.6,29.96,West,260,5.5,13.0,83,0.00,,---,0.00,VWS V12.08,2013-05-16 14:20:00,
2013-05-16 10:25:00,68.7,55.8,29.77,South,174,0.0,14.7,63,14.53,,---,0.00,VWS V12.08,2013-05-16 14:25:00,
2013-05-16 10:30:00,37.1,28.4,30.05,West,260,1.3,13.2,70,0.00,,---,0.00,VWS V12.08,2013-05-16 14:30:00,
2013-05-16 10:35:00,42.6,37.9,29.75,WSW,250,0.0,11.9,83,0.00,,---,0.00,VWS V12.08,2013-05-16 14:35:00,
2013-05-16 10:40:00,70.2,55.7,29.79,South,176,4.3,0.0,60,14.53,,---,0.00,VWS V12.08,2013-05-16 14:40:00,
2013-05-16 10:45:00,44.8,38.8,29.74,West,267,7.5,17.2,79,0.00,,---,0.00,VWS V12.08,2013-05-16 14:45:00,
2013-05-16 10:50:00,45.2,38.5,29.73,WNW,283,10.8,19.6,77,0.00,,---,0.00,VWS V12.08,2013-05-16 14:50:00,
2013-05-16 10:55:00,46.6,38.0,29.71,West,276,17.2,18.0,72,0.00,,---,0.00,VWS V12.08,2013-05-16 14:55:00,
2013-05-16 11:00:00,72.5,55.8,29.78,SSE,160,5.0,14.7,56,14.53,,---,0.00,VWS V12.08,2013-05-16 15:00:00,
2013-05-16 11:05:00,72.9,55.3,29.77,SSW,200,0.0,14.7,54,14.53,,---,0.00,VWS V12.08,2013-05-16 15:05:00,
2013-05-16 11:10:00,46.6,38.0,29.71,West,276,17.2,18.0,72,0.00,,---,0.00,VWS V12.08,2013-05-16 15:10:00,
2013-05-16 11:15:00,46.6,38.0,29.71,West,276,17.2,18.0,72,0.00,,---,0.00,VWS V12.08,2013-05-16 15:15:00,
2013-05-16 11:20:00,73.7,55.5,29.76,ESE,107,0.0,14.7,53,14.53,,---,0.00,VWS V12.08,2013-05-16 15:20:00,
2013-05-16 11:25:00,74.1,55.0,29.77,WNW,292,0.0,14.7,51,14.53,,---,0.00,VWS V12.08,2013-05-16 15:25:00,
2013-05-16 11:30:00,74.7,55.1,29.77,South,172,7.3,14.7,50,14.53,,---,0.00,VWS V12.08,2013-05-16 15:30:00,
2013-05-16 11:35:00,46.6,38.0,29.71,West,276,17.2,18.0,72,0.00,,---,0.00,VWS V12.08,2013-05-16 15:35:00,
2013-05-16 11:40:00,46.6,38.0,29.71,West,276,17.2,18.0,72,0.00,,---,0.00,VWS V12.08,2013-05-16 15:40:00,
2013-05-16 11:45:00,46.6,38.0,29.71,West,276,17.2,18.0,72,0.00,,---,0.00,VWS V12.08,2013-05-16 15:45:00,
2013-05-16 11:50:00,76.2,56.2,29.77,SSE,165,5.7,14.7,50,14.53,,---,0.00,VWS V12.08,2013-05-16 15:50:00,
2013-05-16 11:55:00,76.0,55.4,29.77,SE,132,5.0,14.7,49,14.53,,---,0.00,VWS V12.08,2013-05-16 15:55:00,
2013-05-16 12:00:00,76.0,55.2,29.77,South,176,8.7,14.7,48,14.53,,---,0.00,VWS V12.08,2013-05-16 16:00:00,
2013-05-16 12:05:00,75.9,54.6,29.77,SSW,200,3.1,14.7,48,14.53,,---,0.00,VWS V12.08,2013-05-16 16:05:00,
2013-05-16 12:10:00,76.0,54.3,29.76,SW,217,8.5,14.7,47,14.53,,---,0.00,VWS V12.08,2013-05-16 16:10:00,
2013-05-16 12:15:00,76.1,54.3,29.76,SSW,205,6.3,14.7,47,14.53,,---,0.00,VWS V12.08,2013-05-16 16:15:00,
2013-05-16 12:20:00,76.3,54.5,29.76,South,183,4.7,14.7,47,14.53,,---,0.00,VWS V12.08,2013-05-16 16:20:00,
2013-05-16 12:25:00,76.5,54.0,29.75,South,186,0.0,14.7,46,14.53,,---,0.00,VWS V12.08,2013-05-16 16:25:00,
2013-05-16 12:30:00,76.9,54.3,29.75,SE,135,0.0,14.7,46,14.53,,---,0.00,VWS V12.08,2013-05-16 16:30:00,
2013-05-16 12:35:00,77.1,54.2,29.76,SSW,200,5.2,14.7,45,14.53,,---,0.00,VWS V12.08,2013-05-16 16:35:00,
2013-05-16 12:40:00,77.1,54.0,29.76,SSW,208,0.0,14.7,45,14.53,,---,0.00,VWS V12.08,2013-05-16 16:40:00,
2013-05-16 12:45:00,77.3,54.0,29.76,South,188,6.8,14.7,44,14.53,,---,0.00,VWS V12.08,2013-05-16 16:45:00,
2013-05-16 12:50:00,77.3,54.1,29.76,SSW,211,6.2,14.7,45,14.53,,---,0.00,VWS V12.08,2013-05-16 16:50:00,
2013-05-16 12:55:00,77.5,53.5,29.76,SW,221,6.4,14.7,43,14.53,,---,0.00,VWS V12.08,2013-05-16 16:55:00,
2013-05-16 13:00:00,78.0,53.7,29.76,WSW,239,5.5,14.7,43,14.53,,---,0.00,VWS V12.08,2013-05-16 17:00:00,
2013-05-16 13:05:00,77.9,54.0,29.76,SSW,195,0.0,14.7,44,14.53,,---,0.00,VWS V12.08,2013-05-16 17:05:00,
2013-05-16 13:10:00,78.2,54.0,29.76,SSE,160,13.6,14.7,43,14.53,,---,0.00,VWS V12.08,2013-05-16 17:10:00,
2013-05-16 13:15:00,78.2,53.9,29.75,SSW,204,8.1,14.7,43,14.53,,---,0.00,VWS V12.08,2013-05-16 17:15:00,
2013-05-16 13:20:00,78.4,53.8,29.75,SW,236,7.7,14.7,42,14.53,,---,0.00,VWS V12.08,2013-05-16 17:20:00,
2013-05-16 13:25:00,78.3,53.3,29.75,South,188,8.8,14.7,42,14.53,,---,0.00,VWS V12.08,2013-05-16 17:25:00,
2013-05-16 13:30:00,78.3,53.2,29.75,WSW,239,5.9,14.7,42,14.53,,---,0.00,VWS V12.08,2013-05-16 17:30:00,
2013-05-16 13:35:00,78.5,53.5,29.74,SSW,204,4.3,14.7,42,14.53,,---,0.00,VWS V12.08,2013-05-16 17:35:00,